Time;durP1;ratioP1;P1;durP2;ratioP2;P2;SDS_P1;SDS_P2;PMS_P1;PMS_P2;Temp;Humidity;BMP_temperature;BMP_pressure;BME280_temperature;BME280_humidity;BME280_pressure;Samples;Min_cycle;Max_cycle;Signal;HPM_P1;HPM_P2
2023/05/12 00:02:09;;;;;;;16.55;15.15;;;;;;;13.45;100.00;101477.66;5073839;28;20024;-65
2023/05/12 00:04:35;;;;;;;15.95;14.55;;;;;;;13.46;100.00;101481.19;5075108;28;20537;-65
2023/05/12 00:07:02;;;;;;;15.23;13.65;;;;;;;13.45;100.00;101477.66;5073244;28;20028;-64
2023/05/12 00:09:28;;;;;;;14.20;12.93;;;;;;;13.33;100.00;101479.31;5075341;28;20390;-65
2023/05/12 00:11:53;;;;;;;12.13;11.02;;;;;;;13.29;100.00;101469.75;5073791;28;20115;-65
2023/05/12 00:14:19;;;;;;;12.60;11.30;;;;;;;13.37;100.00;101471.94;5074944;28;20042;-65
2023/05/12 00:16:50;;;;;;;11.88;10.70;;;;;;;13.32;100.00;101479.38;5075078;28;20033;-65
2023/05/12 00:19:15;;;;;;;11.52;10.43;;;;;;;13.30;100.00;101482.19;5073923;28;20060;-64
2023/05/12 00:21:42;;;;;;;12.15;11.05;;;;;;;13.32;100.00;101484.72;5074033;28;20437;-65
2023/05/12 00:24:07;;;;;;;11.43;10.35;;;;;;;13.33;100.00;101484.66;5073848;28;20040;-65
2023/05/12 00:26:33;;;;;;;11.50;10.32;;;;;;;13.34;100.00;101477.47;5073325;28;20091;-65
2023/05/12 00:28:58;;;;;;;11.70;10.60;;;;;;;13.21;100.00;101461.38;5073187;28;20438;-65
2023/05/12 00:31:23;;;;;;;11.27;10.18;;;;;;;13.31;100.00;101469.66;5074542;28;20046;-65
2023/05/12 00:33:49;;;;;;;10.93;9.98;;;;;;;13.36;100.00;101470.25;5074468;28;20582;-65
2023/05/12 00:36:14;;;;;;;11.85;10.65;;;;;;;13.26;100.00;101474.44;5074442;28;20020;-65
2023/05/12 00:38:42;;;;;;;11.95;10.73;;;;;;;13.19;100.00;101468.59;5074468;28;20528;-65
2023/05/12 00:41:07;;;;;;;12.52;11.43;;;;;;;13.17;100.00;101474.03;5073525;28;20051;-65
2023/05/12 00:43:33;;;;;;;13.27;11.98;;;;;;;13.04;100.00;101477.59;5072991;28;20052;-65
2023/05/12 00:46:00;;;;;;;13.30;12.10;;;;;;;13.05;100.00;101469.47;5074527;28;20033;-65
2023/05/12 00:48:25;;;;;;;12.98;11.88;;;;;;;12.98;100.00;101470.00;5074247;28;20029;-65
2023/05/12 00:50:51;;;;;;;13.13;11.80;;;;;;;12.88;100.00;101470.56;5107119;28;20152;-65
2023/05/12 00:53:16;;;;;;;14.70;13.38;;;;;;;12.84;100.00;101468.16;5073978;28;20035;-65
2023/05/12 00:55:42;;;;;;;12.75;11.63;;;;;;;12.84;100.00;101462.84;5074672;28;20020;-65
2023/05/12 00:58:10;;;;;;;13.82;12.27;;;;;;;12.76;100.00;101457.97;5106785;28;20027;-64
2023/05/12 01:00:35;;;;;;;12.68;11.52;;;;;;;12.88;100.00;101467.00;5074311;28;20065;-65
2023/05/12 01:03:01;;;;;;;13.27;11.98;;;;;;;12.83;100.00;101461.13;5074094;28;20116;-65
2023/05/12 01:05:46;;;;;;;13.85;11.93;;;;;;;12.88;100.00;101464.34;5074221;28;20028;-65
2023/05/12 01:08:12;;;;;;;12.20;11.10;;;;;;;12.78;100.00;101456.06;5073848;28;20456;-66
2023/05/12 01:10:43;;;;;;;13.13;12.02;;;;;;;12.70;100.00;101455.69;5074166;28;20028;-65
2023/05/12 01:13:08;;;;;;;12.57;11.48;;;;;;;12.71;100.00;101455.59;5073400;28;20024;-64
2023/05/12 01:15:35;;;;;;;12.75;11.65;;;;;;;12.75;100.00;101450.06;5073900;28;20089;-64
2023/05/12 01:18:04;;;;;;;13.48;12.38;;;;;;;12.69;100.00;101446.81;5072661;28;20060;-65
2023/05/12 01:20:32;;;;;;;13.38;12.15;;;;;;;12.64;100.00;101454.25;5072604;28;20115;-64
2023/05/12 01:23:01;;;;;;;12.83;11.83;;;;;;;12.69;100.00;101452.16;5073463;28;20025;-65
2023/05/12 01:25:30;;;;;;;12.40;11.25;;;;;;;12.65;100.00;101447.97;5072523;28;20285;-65
2023/05/12 01:27:58;;;;;;;13.70;12.40;;;;;;;12.67;100.00;101443.38;5072371;28;20025;-64
2023/05/12 01:30:25;;;;;;;13.57;12.38;;;;;;;12.65;100.00;101444.47;5073513;28;20059;-64
2023/05/12 01:32:51;;;;;;;13.38;12.25;;;;;;;12.64;100.00;101450.72;5073495;28;20025;-65
2023/05/12 01:35:16;;;;;;;14.05;12.73;;;;;;;12.68;100.00;101442.44;5073608;28;20024;-65
2023/05/12 01:37:45;;;;;;;13.18;12.02;;;;;;;12.61;100.00;101440.25;5071774;28;20487;-65
2023/05/12 01:40:14;;;;;;;14.30;12.77;;;;;;;12.57;100.00;101431.56;5073718;28;20062;-65
2023/05/12 01:42:41;;;;;;;14.10;12.85;;;;;;;12.53;100.00;101429.19;5072948;28;20357;-65
2023/05/12 01:45:07;;;;;;;14.93;13.63;;;;;;;12.52;100.00;101438.16;5073557;28;20028;-65
2023/05/12 01:47:32;;;;;;;14.68;12.90;;;;;;;12.66;100.00;101435.47;5071810;28;20028;-64
2023/05/12 01:49:58;;;;;;;13.63;12.43;;;;;;;12.57;100.00;101441.41;5105948;28;20073;-65
2023/05/12 01:52:24;;;;;;;13.68;12.38;;;;;;;12.50;100.00;101439.09;5105393;28;20034;-65
2023/05/12 01:54:50;;;;;;;13.95;12.55;;;;;;;12.58;100.00;101432.44;5073425;28;20024;-65
2023/05/12 01:57:16;;;;;;;13.23;11.88;;;;;;;12.56;100.00;101434.31;5106681;27;20055;-65
2023/05/12 01:59:43;;;;;;;13.63;12.25;;;;;;;12.53;100.00;101429.19;5105917;28;20475;-65
2023/05/12 02:02:09;;;;;;;13.45;11.93;;;;;;;12.52;100.00;101432.81;5073187;28;20078;-65
2023/05/12 02:04:34;;;;;;;12.48;11.27;;;;;;;12.43;100.00;101434.22;5073096;28;20426;-65
2023/05/12 02:07:01;;;;;;;12.68;11.68;;;;;;;12.39;100.00;101428.25;5105152;28;20016;-65
2023/05/12 02:09:29;;;;;;;13.00;11.80;;;;;;;12.38;100.00;101429.19;5072924;28;20048;-65
2023/05/12 02:11:56;;;;;;;12.82;11.70;;;;;;;12.29;100.00;101427.06;5071355;28;20111;-65
2023/05/12 02:14:22;;;;;;;12.85;11.70;;;;;;;12.34;100.00;101411.66;5072467;28;20050;-65
2023/05/12 02:16:51;;;;;;;13.07;11.98;;;;;;;12.37;100.00;101430.13;5072585;28;20434;-65
2023/05/12 02:19:19;;;;;;;12.50;11.30;;;;;;;12.39;100.00;101412.22;5071520;28;20024;-65
2023/05/12 02:21:45;;;;;;;12.25;11.10;;;;;;;12.20;100.00;101417.81;5071783;28;20059;-65
2023/05/12 02:24:13;;;;;;;11.27;10.38;;;;;;;12.19;100.00;101413.44;5071048;28;20440;-65
2023/05/12 02:26:41;;;;;;;11.18;10.23;;;;;;;12.24;100.00;101415.84;5072516;28;20055;-65
2023/05/12 02:29:06;;;;;;;11.00;10.10;;;;;;;12.26;100.00;101404.13;5072284;28;20048;-64
2023/05/12 02:31:31;;;;;;;10.38;9.43;;;;;;;12.34;100.00;101408.97;5072320;28;20650;-65
2023/05/12 02:34:00;;;;;;;10.77;9.88;;;;;;;12.28;100.00;101410.22;5071124;28;20028;-65
2023/05/12 02:36:27;;;;;;;11.00;10.05;;;;;;;12.24;100.00;101407.84;5071508;28;20368;-65
2023/05/12 02:38:52;;;;;;;10.90;10.00;;;;;;;12.30;100.00;101406.63;5071597;28;20052;-65
2023/05/12 02:41:18;;;;;;;11.43;10.52;;;;;;;12.37;100.00;101402.59;5071746;28;20059;-65
2023/05/12 02:43:43;;;;;;;11.55;10.55;;;;;;;12.22;100.00;101386.59;5071000;28;20024;-65
2023/05/12 02:46:08;;;;;;;10.35;9.55;;;;;;;12.26;100.00;101396.13;5070943;28;20021;-65
2023/05/12 02:48:34;;;;;;;10.77;9.88;;;;;;;12.21;100.00;101390.22;5072154;28;20024;-64
2023/05/12 02:50:59;;;;;;;10.25;9.43;;;;;;;12.15;100.00;101389.75;5071803;28;20075;-65
2023/05/12 02:53:26;;;;;;;9.90;9.05;;;;;;;12.11;100.00;101397.03;5069946;28;20029;-65
2023/05/12 02:55:52;;;;;;;9.65;8.80;;;;;;;12.20;100.00;101393.81;5070806;28;20119;-65
2023/05/12 02:58:17;;;;;;;9.45;8.65;;;;;;;12.15;100.00;101387.06;5072167;28;20021;-65
2023/05/12 03:00:43;;;;;;;9.45;8.70;;;;;;;12.09;100.00;101390.09;5070412;28;20564;-66
2023/05/12 03:03:13;;;;;;;9.25;8.55;;;;;;;12.08;100.00;101383.91;5071851;28;20033;-65
2023/05/12 03:05:38;;;;;;;8.63;7.93;;;;;;;12.02;100.00;101384.28;5071741;28;20056;-65
2023/05/12 03:08:04;;;;;;;8.85;8.05;;;;;;;12.11;100.00;101383.72;5071063;28;20386;-65
2023/05/12 03:10:34;;;;;;;8.50;7.78;;;;;;;12.00;100.00;101375.50;5070422;28;20029;-65
2023/05/12 03:12:59;;;;;;;7.35;6.75;;;;;;;12.11;100.00;101381.03;5071553;28;20531;-65
2023/05/12 03:15:27;;;;;;;7.82;7.32;;;;;;;12.04;100.00;101377.91;5071769;28;20107;-65
2023/05/12 03:17:55;;;;;;;8.50;7.80;;;;;;;12.09;100.00;101372.31;5071771;28;20510;-65
2023/05/12 03:20:23;;;;;;;7.38;6.65;;;;;;;12.03;100.00;101375.34;5071389;28;20055;-65
2023/05/12 03:22:49;;;;;;;6.25;5.85;;;;;;;11.98;100.00;101370.28;5070532;28;20027;-65
2023/05/12 03:25:14;;;;;;;6.75;6.25;;;;;;;11.95;100.00;101365.13;5070140;28;20032;-65
2023/05/12 03:27:40;;;;;;;6.47;6.05;;;;;;;11.96;100.00;101358.84;5070093;28;20050;-65
2023/05/12 03:30:08;;;;;;;6.82;6.30;;;;;;;11.92;100.00;101362.66;5071320;28;20488;-64
2023/05/12 03:32:34;;;;;;;7.03;6.53;;;;;;;11.89;100.00;101362.00;5071264;28;20031;-65
2023/05/12 03:35:01;;;;;;;6.68;6.18;;;;;;;11.95;100.00;101358.94;5069674;28;20056;-65
2023/05/12 03:37:27;;;;;;;8.05;7.43;;;;;;;11.85;100.00;101347.97;5069161;28;20442;-65
2023/05/12 03:39:54;;;;;;;7.72;7.05;;;;;;;11.80;100.00;101355.38;5071443;28;20024;-65
2023/05/12 03:42:20;;;;;;;8.27;7.68;;;;;;;11.73;100.00;101346.88;5071128;28;20476;-65
2023/05/12 03:44:48;;;;;;;8.75;7.95;;;;;;;11.78;100.00;101344.78;5071327;28;20059;-65
2023/05/12 03:47:13;;;;;;;9.18;8.48;;;;;;;11.81;100.00;101346.41;5071076;28;20478;-65
2023/05/12 03:49:39;;;;;;;9.25;8.50;;;;;;;11.85;100.00;101347.97;5071521;28;20104;-65
2023/05/12 03:52:04;;;;;;;11.13;9.73;;;;;;;11.90;100.00;101343.22;5070739;28;20383;-65
2023/05/12 03:54:30;;;;;;;10.90;10.00;;;;;;;11.94;100.00;101349.22;5071224;28;20031;-65
2023/05/12 03:56:55;;;;;;;11.00;9.57;;;;;;;11.90;100.00;101343.22;5071347;28;20103;-65
2023/05/12 03:59:20;;;;;;;10.40;9.38;;;;;;;11.99;100.00;101347.13;5070090;28;20036;-64
2023/05/12 04:01:46;;;;;;;11.07;10.15;;;;;;;11.94;100.00;101346.56;5071312;28;20464;-66
2023/05/12 04:04:11;;;;;;;12.15;11.02;;;;;;;11.80;100.00;101336.72;5071640;28;20067;-65
2023/05/12 04:06:37;;;;;;;12.10;10.90;;;;;;;11.77;100.00;101344.91;5070461;28;20040;-65
2023/05/12 04:09:02;;;;;;;11.80;10.73;;;;;;;11.81;100.00;101347.28;5104020;28;20123;-65
2023/05/12 04:11:28;;;;;;;12.65;11.45;;;;;;;11.89;100.00;101346.84;5103590;28;20028;-65
2023/05/12 04:13:54;;;;;;;11.55;10.50;;;;;;;11.90;100.00;101345.03;5071478;28;20036;-64
2023/05/12 04:16:19;;;;;;;12.95;11.65;;;;;;;11.86;100.00;101344.38;5071080;28;20135;-65
2023/05/12 04:18:45;;;;;;;13.75;12.45;;;;;;;11.76;100.00;101325.34;5071288;28;20024;-65
2023/05/12 04:21:10;;;;;;;14.77;12.52;;;;;;;11.86;100.00;101333.72;5069786;28;20082;-65
2023/05/12 04:23:41;;;;;;;14.38;12.95;;;;;;;11.81;100.00;101344.59;5070316;28;20043;-65
2023/05/12 04:26:06;;;;;;;15.55;14.10;;;;;;;11.79;100.00;101333.19;5069292;28;20047;-65
2023/05/12 04:28:31;;;;;;;15.80;14.20;;;;;;;11.81;100.00;101336.59;5068998;28;20295;-64
2023/05/12 04:31:02;;;;;;;16.52;14.88;;;;;;;11.85;100.00;101333.75;5069510;28;20048;-65
2023/05/12 04:33:27;;;;;;;17.80;15.80;;;;;;;11.86;100.00;101339.03;5069456;28;20047;-65
2023/05/12 04:35:56;;;;;;;18.20;16.30;;;;;;;11.86;100.00;101336.38;5069411;28;20032;-65
2023/05/12 04:38:22;;;;;;;17.13;15.35;;;;;;;11.82;100.00;101330.34;5069132;28;20029;-65
2023/05/12 04:40:47;;;;;;;19.27;16.67;;;;;;;11.84;100.00;101327.56;5070694;28;20029;-65
2023/05/12 04:43:13;;;;;;;18.80;16.55;;;;;;;11.77;100.00;101324.44;5069483;28;20025;-65
2023/05/12 04:45:38;;;;;;;19.35;16.67;;;;;;;11.68;100.00;101310.81;5069526;28;20070;-65
2023/05/12 04:48:06;;;;;;;19.80;17.33;;;;;;;11.91;100.00;101336.06;5073625;28;20028;-65
2023/05/12 04:50:31;;;;;;;20.00;17.45;;;;;;;11.90;100.00;101334.38;5106905;28;20039;-65
2023/05/12 04:52:57;;;;;;;20.65;18.45;;;;;;;11.92;100.00;101340.47;5073935;28;20387;-65
2023/05/12 04:55:22;;;;;;;21.73;18.42;;;;;;;11.98;100.00;101342.78;5073740;28;20453;-65
2023/05/12 04:57:47;;;;;;;24.42;18.98;;;;;;;11.92;100.00;101336.00;5089536;28;20028;-65
2023/05/12 05:00:13;;;;;;;21.80;18.67;;;;;;;11.96;100.00;101337.50;5092688;28;20089;-66
2023/05/12 05:02:40;;;;;;;21.85;19.00;;;;;;;11.94;100.00;101334.09;5106907;28;20032;-65
2023/05/12 05:05:08;;;;;;;22.42;19.17;;;;;;;11.91;100.00;101349.41;5072705;28;20457;-65
2023/05/12 05:07:33;;;;;;;25.77;20.42;;;;;;;11.97;100.00;101349.03;5072289;28;20029;-65
2023/05/12 05:09:59;;;;;;;25.10;22.38;;;;;;;11.98;100.00;101354.28;5074215;28;20031;-65
2023/05/12 05:12:24;;;;;;;25.45;22.63;;;;;;;11.99;100.00;101348.00;5073325;28;20039;-65
2023/05/12 05:14:50;;;;;;;29.38;22.83;;;;;;;11.99;100.00;101355.13;5092855;28;20030;-64
2023/05/12 05:17:15;;;;;;;29.65;24.30;;;;;;;12.00;100.00;101352.41;5094085;28;20111;-65
2023/05/12 05:19:40;;;;;;;28.55;24.05;;;;;;;11.98;100.00;101356.94;5092787;28;20031;-64
2023/05/12 05:22:06;;;;;;;31.25;25.92;;;;;;;11.97;100.00;101347.25;5092139;28;20024;-65
2023/05/12 05:24:32;;;;;;;30.15;25.50;;;;;;;11.96;100.00;101361.50;5093384;28;20401;-65
2023/05/12 05:26:57;;;;;;;34.25;27.55;;;;;;;12.02;100.00;101360.28;5092548;28;20024;-65
2023/05/12 05:29:22;;;;;;;37.03;28.42;;;;;;;11.95;100.00;101351.81;5093660;28;20048;-65
2023/05/12 05:31:51;;;;;;;34.83;28.00;;;;;;;12.05;100.00;101362.75;5092235;28;20024;-65
2023/05/12 05:34:17;;;;;;;34.55;28.58;;;;;;;12.02;100.00;101358.47;5092282;28;20073;-65
2023/05/12 05:36:42;;;;;;;35.47;29.48;;;;;;;12.05;100.00;101360.09;5093047;28;20371;-66
2023/05/12 05:39:09;;;;;;;36.45;28.73;;;;;;;12.15;100.00;101371.06;5092529;28;20035;-65
2023/05/12 05:41:37;;;;;;;37.28;29.70;;;;;;;12.18;100.00;101378.88;5093380;28;20054;-65
2023/05/12 05:44:02;;;;;;;37.78;30.40;;;;;;;12.18;100.00;101369.06;5093680;28;20193;-64
2023/05/12 05:46:27;;;;;;;37.60;30.20;;;;;;;12.17;100.00;101372.66;5074105;28;20044;-66
2023/05/12 05:48:55;;;;;;;39.67;30.85;;;;;;;12.17;100.00;101374.47;5071752;28;20455;-65
2023/05/12 05:51:20;;;;;;;37.47;30.80;;;;;;;12.19;100.00;101375.25;5072367;28;20032;-65
2023/05/12 05:53:46;;;;;;;40.65;30.10;;;;;;;12.25;100.00;101383.72;5071833;28;20086;-65
2023/05/12 05:56:16;;;;;;;40.08;32.30;;;;;;;12.33;100.00;101383.28;5072849;28;20059;-65
2023/05/12 05:58:41;;;;;;;37.67;31.20;;;;;;;12.32;100.00;101386.88;5072371;28;20024;-65
2023/05/12 06:01:06;;;;;;;41.80;33.78;;;;;;;12.34;100.00;101392.13;5072822;28;20055;-65
2023/05/12 06:03:32;;;;;;;37.70;31.17;;;;;;;12.38;100.00;101389.19;5072297;28;20115;-65
2023/05/12 06:06:00;;;;;;;39.63;32.70;;;;;;;12.39;100.00;101390.88;5071339;28;20028;-65
2023/05/12 06:08:25;;;;;;;40.80;34.25;;;;;;;12.41;100.00;101396.13;5070982;28;20488;-65
2023/05/12 06:10:50;;;;;;;39.15;32.08;;;;;;;12.41;100.00;101406.78;5072706;28;20016;-65
2023/05/12 06:13:16;;;;;;;41.38;34.15;;;;;;;12.43;100.00;101407.56;5072660;28;20388;-64
2023/05/12 06:15:41;;;;;;;39.35;32.25;;;;;;;12.46;100.00;101410.88;5071481;28;20040;-65
2023/05/12 06:18:09;;;;;;;39.22;32.47;;;;;;;12.47;100.00;101415.28;5072376;28;20033;-65
2023/05/12 06:20:34;;;;;;;41.03;33.13;;;;;;;12.53;100.00;101418.50;5071349;28;20111;-65
2023/05/12 06:23:00;;;;;;;41.38;34.33;;;;;;;12.56;100.00;101421.88;5070751;28;20103;-65
2023/05/12 06:25:26;;;;;;;40.78;34.53;;;;;;;12.55;100.00;101420.13;5071231;28;20487;-65
2023/05/12 06:27:51;;;;;;;39.67;33.05;;;;;;;12.62;100.00;101429.50;5072363;28;20033;-65
2023/05/12 06:30:17;;;;;;;38.15;34.00;;;;;;;12.63;100.00;101433.00;5070585;28;20117;-65
2023/05/12 06:32:42;;;;;;;40.75;34.50;;;;;;;12.66;100.00;101431.00;5069789;28;20020;-65
2023/05/12 06:35:08;;;;;;;41.40;34.55;;;;;;;12.63;100.00;101425.84;5071949;28;20032;-65
2023/05/12 06:37:33;;;;;;;41.40;35.72;;;;;;;12.77;100.00;101441.00;5070304;28;20391;-65
2023/05/12 06:39:59;;;;;;;41.22;35.75;;;;;;;12.84;100.00;101442.34;5070772;28;20042;-65
2023/05/12 06:42:26;;;;;;;45.13;37.55;;;;;;;12.92;100.00;101449.88;5070636;28;20028;-65
2023/05/12 06:44:52;;;;;;;39.83;35.63;;;;;;;12.98;100.00;101441.47;5070695;28;20035;-65
2023/05/12 06:47:17;;;;;;;41.22;35.42;;;;;;;13.08;100.00;101449.75;5070029;28;20399;-65
2023/05/12 06:49:43;;;;;;;42.78;35.30;;;;;;;13.19;100.00;101442.75;5072037;28;20464;-65
2023/05/12 06:52:08;;;;;;;39.90;35.30;;;;;;;13.26;100.00;101448.56;5071292;28;20102;-65
2023/05/12 06:54:33;;;;;;;39.95;35.65;;;;;;;13.31;100.00;101457.16;5069464;28;20131;-65
2023/05/12 06:56:59;;;;;;;37.13;33.25;;;;;;;13.31;100.00;101446.47;5104328;28;20031;-65
2023/05/12 06:59:24;;;;;;;36.35;32.67;;;;;;;13.39;100.00;101454.84;5070647;28;20073;-65
2023/05/12 07:01:50;;;;;;;34.78;31.08;;;;;;;13.39;100.00;101446.84;5103971;28;20024;-65
2023/05/12 07:04:15;;;;;;;35.13;31.70;;;;;;;13.53;100.00;101458.41;5071287;28;20035;-64
2023/05/12 07:06:43;;;;;;;33.38;30.17;;;;;;;13.50;100.00;101450.59;5070724;28;20122;-65
2023/05/12 07:09:08;;;;;;;31.90;28.85;;;;;;;13.68;100.00;101460.09;5071475;28;20033;-64
2023/05/12 07:11:34;;;;;;;32.63;29.33;;;;;;;13.69;100.00;101455.63;5071203;28;20032;-65
2023/05/12 07:14:00;;;;;;;31.00;28.10;;;;;;;13.81;100.00;101466.34;5071355;28;20032;-65
2023/05/12 07:16:25;;;;;;;30.15;27.02;;;;;;;13.81;100.00;101463.66;5070620;28;20532;-65
2023/05/12 07:18:50;;;;;;;28.85;26.17;;;;;;;13.82;100.00;101468.06;5071258;28;20056;-65
2023/05/12 07:21:16;;;;;;;27.55;24.95;;;;;;;13.84;100.00;101476.81;5069941;28;20074;-65
2023/05/12 07:23:41;;;;;;;27.10;24.65;;;;;;;13.82;100.00;101465.41;5071654;28;20064;-64
2023/05/12 07:26:09;;;;;;;26.63;24.05;;;;;;;13.90;100.00;101470.22;5071722;28;20024;-65
2023/05/12 07:28:35;;;;;;;21.92;20.13;;;;;;;14.01;100.00;101480.19;5065623;28;20028;-65
2023/05/12 07:31:08;;;;;;;21.08;19.08;;;;;;;14.03;100.00;101475.59;5070620;28;20064;-65
2023/05/12 07:33:38;;;;;;;20.08;18.45;;;;;;;14.05;100.00;101473.66;5102880;28;20035;-65
2023/05/12 07:36:07;;;;;;;19.88;18.27;;;;;;;14.01;100.00;101481.06;5070848;28;20361;-65
2023/05/12 07:38:33;;;;;;;20.35;18.45;;;;;;;14.01;100.00;101477.53;5067330;28;20044;-65
2023/05/12 07:40:59;;;;;;;20.42;18.45;;;;;;;14.06;100.00;101484.28;5070693;28;20024;-65
2023/05/12 07:43:24;;;;;;;19.05;17.38;;;;;;;14.20;100.00;101475.28;5102991;28;20507;-64
2023/05/12 07:45:50;;;;;;;17.38;15.70;;;;;;;14.37;100.00;101474.16;5070385;28;20032;-65
2023/05/12 07:48:15;;;;;;;15.57;14.20;;;;;;;14.51;100.00;101481.22;5070409;28;20028;-65
2023/05/12 07:50:41;;;;;;;13.43;12.32;;;;;;;14.60;100.00;101488.66;5070919;28;20024;-64
2023/05/12 07:53:06;;;;;;;14.20;12.77;;;;;;;14.68;100.00;101480.94;5068354;28;20028;-65
2023/05/12 07:55:34;;;;;;;13.70;12.32;;;;;;;14.81;99.27;101488.09;5071080;28;20069;-64
2023/05/12 07:58:00;;;;;;;12.68;11.57;;;;;;;14.95;99.25;101485.31;5070059;28;20024;-64
2023/05/12 08:00:26;;;;;;;11.48;10.40;;;;;;;14.97;93.31;101500.31;5071217;28;20036;-64
2023/05/12 08:02:52;;;;;;;11.65;10.68;;;;;;;14.84;94.10;101491.41;5070544;28;20495;-63
2023/05/12 08:05:20;;;;;;;10.95;9.88;;;;;;;14.85;95.13;101502.97;5071227;28;20032;-65
2023/05/12 08:07:46;;;;;;;11.45;10.43;;;;;;;14.77;93.67;101500.88;5070691;28;20021;-64
2023/05/12 08:10:11;;;;;;;11.43;10.40;;;;;;;14.80;94.56;101503.31;5070322;28;20024;-65
2023/05/12 08:12:39;;;;;;;11.75;10.75;;;;;;;14.85;95.23;101500.31;5069961;28;20345;-63
2023/05/12 08:15:05;;;;;;;11.40;10.27;;;;;;;14.86;93.75;101500.22;5071597;28;20028;-65
2023/05/12 08:17:30;;;;;;;11.88;10.43;;;;;;;14.87;95.43;101507.28;5071003;28;20048;-65
2023/05/12 08:19:55;;;;;;;10.73;9.85;;;;;;;14.92;95.78;101512.31;5071426;28;20490;-65
2023/05/12 08:22:21;;;;;;;11.40;10.30;;;;;;;15.00;95.81;101501.94;5074350;28;20025;-64
2023/05/12 08:24:46;;;;;;;11.02;10.02;;;;;;;15.24;93.57;101506.50;5073482;28;20123;-65
2023/05/12 08:27:12;;;;;;;11.05;10.05;;;;;;;15.40;92.11;101509.75;5074807;28;20020;-65
2023/05/12 08:29:40;;;;;;;10.88;9.90;;;;;;;15.47;91.95;101512.84;5073665;28;20045;-63
2023/05/12 08:32:05;;;;;;;10.85;9.85;;;;;;;15.74;93.77;101510.84;5074826;28;20049;-65
2023/05/12 08:34:33;;;;;;;10.73;9.00;;;;;;;15.76;91.34;101516.09;5074639;28;20017;-65
2023/05/12 08:36:59;;;;;;;10.85;9.52;;;;;;;15.71;90.54;101510.22;5074313;28;20491;-65
2023/05/12 08:39:24;;;;;;;10.05;9.25;;;;;;;15.76;90.77;101521.44;5074758;28;20025;-65
2023/05/12 08:42:27;;;;;;;9.57;8.88;;;;;;;15.81;90.41;101532.72;5074305;28;20032;-65
2023/05/12 08:44:53;;;;;;;10.20;7.80;;;;;;;15.84;85.37;101530.66;5073337;28;20028;-65
2023/05/12 08:47:19;;;;;;;9.07;8.15;;;;;;;15.91;86.51;101522.97;5073071;28;20103;-64
2023/05/12 08:49:53;;;;;;;8.05;7.40;;;;;;;15.94;84.54;101525.44;5073193;28;20024;-65
2023/05/12 08:52:21;;;;;;;7.90;7.15;;;;;;;16.07;85.58;101536.13;5074013;28;20029;-64
2023/05/12 08:54:48;;;;;;;8.18;7.38;;;;;;;16.16;87.33;101530.06;5074529;28;20414;-64
2023/05/12 08:57:15;;;;;;;8.23;7.03;;;;;;;16.18;88.73;101525.44;5074139;28;20075;-64
2023/05/12 08:59:43;;;;;;;7.78;6.93;;;;;;;16.37;85.42;101532.09;5074610;28;20025;-65
2023/05/12 09:02:11;;;;;;;7.45;6.75;;;;;;;16.54;85.62;101531.66;5074456;28;20483;-65
2023/05/12 09:04:38;;;;;;;6.60;6.10;;;;;;;16.53;80.85;101537.97;5074193;28;20033;-65
2023/05/12 09:07:05;;;;;;;6.78;6.07;;;;;;;16.41;79.78;101550.50;5072541;28;20039;-65
2023/05/12 09:09:39;;;;;;;6.95;6.05;;;;;;;16.30;81.54;101527.19;5074196;28;20539;-65
2023/05/12 09:12:09;;;;;;;6.88;6.15;;;;;;;16.59;81.60;101548.28;5074029;28;20016;-64
2023/05/12 09:14:36;;;;;;;7.07;5.05;;;;;;;16.61;76.63;101545.44;5072565;28;20477;-65
2023/05/12 09:17:03;;;;;;;6.28;5.68;;;;;;;16.71;78.77;101549.16;5071773;28;20446;-65
2023/05/12 09:19:29;;;;;;;5.90;5.13;;;;;;;16.96;78.10;101545.41;5072586;28;20111;-65
2023/05/12 09:21:54;;;;;;;5.55;5.07;;;;;;;17.07;74.91;101552.63;5073432;28;20310;-65
2023/05/12 09:24:21;;;;;;;7.78;4.82;;;;;;;17.26;75.43;101550.19;5072819;28;20028;-65
2023/05/12 09:26:52;;;;;;;4.57;4.18;;;;;;;17.27;72.48;101565.34;5073631;28;20032;-65
2023/05/12 09:29:18;;;;;;;6.03;4.45;;;;;;;17.21;72.37;101547.88;5072488;28;20052;-64
2023/05/12 09:31:57;;;;;;;10.30;4.53;;;;;;;17.29;73.81;101554.47;5072184;28;20597;-65
2023/05/12 09:34:39;;;;;;;7.72;4.65;;;;;;;17.55;73.46;101563.13;5073671;28;20028;-65
2023/05/12 09:37:10;;;;;;;7.50;5.10;;;;;;;17.81;71.92;101555.63;5073277;28;20031;-65
2023/05/12 09:39:35;;;;;;;4.85;4.43;;;;;;;17.95;71.73;101554.50;5072042;28;20032;-64
2023/05/12 09:42:01;;;;;;;4.82;4.32;;;;;;;18.20;71.94;101556.84;5073555;28;20357;-65
2023/05/12 09:44:30;;;;;;;5.47;4.72;;;;;;;18.49;70.47;101558.91;5055648;28;20025;-65
2023/05/12 09:47:05;;;;;;;4.72;4.22;;;;;;;18.71;70.80;101547.16;5073346;28;20471;-65
2023/05/12 09:49:30;;;;;;;4.50;4.10;;;;;;;18.70;65.66;101553.53;5073575;28;20430;-65
2023/05/12 09:51:58;;;;;;;5.30;3.83;;;;;;;18.69;66.72;101549.97;5072896;28;20013;-65
2023/05/12 09:54:32;;;;;;;3.60;3.30;;;;;;;18.62;66.88;101559.59;5073115;28;20384;-65
2023/05/12 09:56:59;;;;;;;7.53;4.20;;;;;;;18.36;66.99;101569.88;5071858;28;20379;-66
2023/05/12 09:59:29;;;;;;;5.38;3.65;;;;;;;18.23;67.02;101567.34;5073063;28;20484;-66
2023/05/12 10:02:00;;;;;;;6.85;3.90;;;;;;;18.14;66.75;101570.81;5071870;28;20074;-65
2023/05/12 10:04:28;;;;;;;4.13;3.70;;;;;;;18.04;66.39;101581.50;5073253;28;20479;-66
2023/05/12 10:06:55;;;;;;;5.95;4.43;;;;;;;18.12;65.30;101567.41;5072583;28;20024;-66
2023/05/12 10:09:27;;;;;;;4.32;4.03;;;;;;;18.04;67.11;101577.97;5072943;28;20092;-65
2023/05/12 10:11:55;;;;;;;4.90;3.88;;;;;;;17.89;65.63;101582.78;5072945;28;20028;-66
2023/05/12 10:14:21;;;;;;;4.22;3.83;;;;;;;18.15;66.10;101584.16;5073004;28;20024;-65
2023/05/12 10:16:48;;;;;;;4.60;3.78;;;;;;;18.61;65.18;101580.25;5071600;28;20460;-64
2023/05/12 10:19:14;;;;;;;5.38;3.58;;;;;;;18.99;63.69;101578.84;5071651;28;20035;-65
2023/05/12 10:21:42;;;;;;;3.97;3.67;;;;;;;18.84;62.72;101582.88;5072402;28;20024;-64
2023/05/12 10:24:07;;;;;;;3.70;3.30;;;;;;;18.92;63.28;101574.13;5072866;28;20029;-65
2023/05/12 10:26:34;;;;;;;5.10;3.95;;;;;;;18.72;63.75;101575.81;5072685;28;20028;-65
2023/05/12 10:29:00;;;;;;;6.68;4.00;;;;;;;18.92;66.38;101580.38;5072582;28;20101;-64
2023/05/12 10:31:26;;;;;;;5.47;4.00;;;;;;;19.20;61.72;101576.09;5071492;28;20099;-64
2023/05/12 10:34:00;;;;;;;112.68;16.30;;;;;;;19.39;62.92;101578.03;5072619;28;20036;-66
2023/05/12 10:36:26;;;;;;;27.95;6.20;;;;;;;19.43;60.33;101582.16;5071975;28;20539;-71
2023/05/12 10:38:52;;;;;;;9.63;3.90;;;;;;;19.45;60.53;101584.75;5070944;28;20025;-71
2023/05/12 10:41:31;;;;;;;4.82;3.58;;;;;;;19.32;63.17;101584.09;5072328;28;20559;-71
2023/05/12 10:43:57;;;;;;;4.30;3.70;;;;;;;19.13;58.24;101553.38;5070380;28;20020;-71
2023/05/12 10:46:25;;;;;;;5.22;3.63;;;;;;;19.20;59.15;101588.72;5070822;28;20024;-71
2023/05/12 10:48:53;;;;;;;3.80;3.20;;;;;;;19.25;58.43;101581.94;5072320;28;20024;-71
2023/05/12 10:51:23;;;;;;;5.75;3.22;;;;;;;19.31;57.99;101591.34;5071936;28;20027;-71
2023/05/12 10:53:58;;;;;;;3.75;3.40;;;;;;;19.14;60.49;101579.34;5072075;28;20424;-71
2023/05/12 10:56:27;;;;;;;3.85;3.00;;;;;;;19.36;58.39;101588.25;5072147;28;20107;-71
2023/05/12 10:59:17;;;;;;;4.60;3.22;;;;;;;19.37;58.81;101593.50;5072123;28;20027;-71
2023/05/12 11:02:15;;;;;;;4.30;3.55;;;;;;;19.47;58.49;101586.31;5070676;28;20120;-71
2023/05/12 11:04:45;;;;;;;4.43;2.70;;;;;;;19.83;57.66;101591.28;5070856;28;20027;-71
2023/05/12 11:07:12;;;;;;;3.00;2.75;;;;;;;19.98;55.56;101581.78;5070270;28;20062;-71
2023/05/12 11:09:42;;;;;;;4.80;3.15;;;;;;;19.90;55.03;101587.00;5070620;28;20020;-71